TFL39G EHGG-EHAM
Flight info
| Callsign | TFL39G |
|---|---|
| Flight time | 0h 25m |
| Altitude | 20000 |
| Route | ARTIP |
| Aircraft | B738/M-SDE2E3FGHIRWXY/LB1 |
Departure
| Time | 2026-05-07 21:42 |
|---|---|
| Airport | Groningen Airport Eelde (EHGG) |
Arrival
| Time | 2026-05-07 22:08 |
|---|---|
| Airport | Amsterdam Airport Schiphol (EHAM) |
| Time | Latitude | Longitude | Altitude | Speed | Heading |
|---|---|---|---|---|---|
| 2026-05-07 21:42 | 53.01621 | 6.41625 | 6740 ft | 270 kts | 226° |
| 2026-05-07 21:42 | 53.00322 | 6.39331 | 7761 ft | 276 kts | 226° |
| 2026-05-07 21:43 | 52.98987 | 6.36997 | 8809 ft | 281 kts | 226° |
| 2026-05-07 21:43 | 52.97619 | 6.34633 | 9753 ft | 287 kts | 225° |
| 2026-05-07 21:43 | 52.96252 | 6.32288 | 10089 ft | 287 kts | 225° |
| 2026-05-07 21:43 | 52.94840 | 6.29880 | 10116 ft | 293 kts | 225° |
| 2026-05-07 21:44 | 52.93415 | 6.27461 | 10111 ft | 291 kts | 225° |
| 2026-05-07 21:44 | 52.91998 | 6.25064 | 10118 ft | 291 kts | 225° |
| 2026-05-07 21:44 | 52.90585 | 6.22676 | 10123 ft | 290 kts | 225° |
| 2026-05-07 21:44 | 52.89173 | 6.20292 | 10122 ft | 290 kts | 225° |
| 2026-05-07 21:45 | 52.87760 | 6.17911 | 10113 ft | 290 kts | 225° |
| 2026-05-07 21:45 | 52.86347 | 6.15531 | 10114 ft | 290 kts | 225° |
| 2026-05-07 21:45 | 52.84932 | 6.13150 | 10114 ft | 290 kts | 225° |
| 2026-05-07 21:45 | 52.83512 | 6.10764 | 10115 ft | 290 kts | 225° |
| 2026-05-07 21:46 | 52.82095 | 6.08382 | 10116 ft | 291 kts | 225° |
| 2026-05-07 21:46 | 52.80675 | 6.05997 | 10115 ft | 290 kts | 225° |
| 2026-05-07 21:46 | 52.79274 | 6.03648 | 10121 ft | 290 kts | 225° |
| 2026-05-07 21:46 | 52.77862 | 6.01280 | 10113 ft | 289 kts | 225° |
| 2026-05-07 21:47 | 52.76451 | 5.98918 | 10113 ft | 288 kts | 225° |
| 2026-05-07 21:47 | 52.75044 | 5.96562 | 10105 ft | 288 kts | 225° |
| 2026-05-07 21:47 | 52.73642 | 5.94221 | 10117 ft | 287 kts | 225° |
| 2026-05-07 21:47 | 52.72236 | 5.91875 | 10116 ft | 287 kts | 225° |
| 2026-05-07 21:48 | 52.70832 | 5.89536 | 10102 ft | 287 kts | 225° |
| 2026-05-07 21:48 | 52.69428 | 5.87199 | 10106 ft | 287 kts | 225° |
| 2026-05-07 21:48 | 52.68022 | 5.84864 | 10106 ft | 287 kts | 225° |
| 2026-05-07 21:48 | 52.66615 | 5.82528 | 10105 ft | 287 kts | 225° |
| 2026-05-07 21:49 | 52.65206 | 5.80192 | 10113 ft | 287 kts | 225° |
| 2026-05-07 21:49 | 52.63798 | 5.77858 | 10107 ft | 288 kts | 225° |
| 2026-05-07 21:49 | 52.62387 | 5.75521 | 10109 ft | 288 kts | 225° |
| 2026-05-07 21:49 | 52.60975 | 5.73185 | 10106 ft | 288 kts | 225° |
| 2026-05-07 21:50 | 52.59564 | 5.70852 | 10101 ft | 288 kts | 225° |
| 2026-05-07 21:50 | 52.58150 | 5.68516 | 10108 ft | 287 kts | 225° |
| 2026-05-07 21:50 | 52.56758 | 5.66217 | 10107 ft | 287 kts | 225° |
| 2026-05-07 21:50 | 52.55344 | 5.63885 | 10106 ft | 287 kts | 225° |
| 2026-05-07 21:51 | 52.53934 | 5.61564 | 10105 ft | 287 kts | 225° |
| 2026-05-07 21:51 | 52.52521 | 5.59240 | 10107 ft | 287 kts | 225° |
| 2026-05-07 21:51 | 52.51169 | 5.56824 | 10095 ft | 287 kts | 236° |
| 2026-05-07 21:51 | 52.50370 | 5.53838 | 10112 ft | 285 kts | 250° |
| 2026-05-07 21:52 | 52.49717 | 5.50761 | 10100 ft | 286 kts | 251° |
| 2026-05-07 21:52 | 52.49068 | 5.47669 | 10106 ft | 285 kts | 251° |
| 2026-05-07 21:52 | 52.48422 | 5.44597 | 10108 ft | 284 kts | 250° |
| 2026-05-07 21:52 | 52.47775 | 5.41543 | 10097 ft | 283 kts | 250° |
| 2026-05-07 21:53 | 52.47132 | 5.38530 | 10105 ft | 284 kts | 250° |
| 2026-05-07 21:53 | 52.46474 | 5.35463 | 9992 ft | 287 kts | 250° |
| 2026-05-07 21:53 | 52.45809 | 5.32377 | 9771 ft | 287 kts | 250° |
| 2026-05-07 21:53 | 52.45147 | 5.29311 | 9553 ft | 285 kts | 250° |
| 2026-05-07 21:54 | 52.44486 | 5.26262 | 9328 ft | 281 kts | 250° |
| 2026-05-07 21:54 | 52.43835 | 5.23262 | 9111 ft | 278 kts | 250° |
| 2026-05-07 21:54 | 52.43184 | 5.20272 | 8903 ft | 278 kts | 250° |
| 2026-05-07 21:54 | 52.42535 | 5.17292 | 8686 ft | 277 kts | 250° |
| 2026-05-07 21:55 | 52.41886 | 5.14319 | 8487 ft | 277 kts | 249° |
| 2026-05-07 21:55 | 52.41239 | 5.11360 | 8277 ft | 276 kts | 249° |
| 2026-05-07 21:55 | 52.40592 | 5.08405 | 8067 ft | 275 kts | 249° |
| 2026-05-07 21:55 | 52.39947 | 5.05462 | 7861 ft | 275 kts | 250° |
| 2026-05-07 21:56 | 52.39298 | 5.02510 | 7657 ft | 275 kts | 249° |
| 2026-05-07 21:56 | 52.38660 | 4.99607 | 7459 ft | 273 kts | 249° |
| 2026-05-07 21:56 | 52.38017 | 4.96683 | 7260 ft | 272 kts | 249° |
| 2026-05-07 21:56 | 52.37376 | 4.93779 | 7145 ft | 273 kts | 249° |
| 2026-05-07 21:57 | 52.36726 | 4.90833 | 7110 ft | 275 kts | 249° |
| 2026-05-07 21:57 | 52.36078 | 4.87902 | 7103 ft | 272 kts | 249° |
| 2026-05-07 21:57 | 52.35437 | 4.85001 | 7096 ft | 270 kts | 249° |
| 2026-05-07 21:57 | 52.34795 | 4.82104 | 7106 ft | 271 kts | 249° |
| 2026-05-07 21:58 | 52.34158 | 4.79240 | 7106 ft | 271 kts | 249° |
| 2026-05-07 21:58 | 52.33527 | 4.76346 | 7099 ft | 270 kts | 252° |
| 2026-05-07 21:58 | 52.33419 | 4.73276 | 7036 ft | 274 kts | 278° |
| 2026-05-07 21:58 | 52.33832 | 4.70208 | 6802 ft | 275 kts | 282° |
| 2026-05-07 21:59 | 52.34269 | 4.67229 | 6534 ft | 271 kts | 282° |
| 2026-05-07 21:59 | 52.34524 | 4.64215 | 6251 ft | 265 kts | 262° |
| 2026-05-07 21:59 | 52.33926 | 4.61422 | 6019 ft | 259 kts | 240° |
| 2026-05-07 21:59 | 52.32991 | 4.58969 | 5746 ft | 249 kts | 236° |
| 2026-05-07 22:00 | 52.32069 | 4.56644 | 5475 ft | 239 kts | 236° |
| 2026-05-07 22:00 | 52.31185 | 4.54399 | 5219 ft | 231 kts | 236° |
| 2026-05-07 22:00 | 52.30335 | 4.52223 | 4967 ft | 224 kts | 236° |
| 2026-05-07 22:00 | 52.29508 | 4.50100 | 4689 ft | 218 kts | 236° |
| 2026-05-07 22:01 | 52.28705 | 4.48030 | 4421 ft | 214 kts | 236° |
| 2026-05-07 22:01 | 52.27918 | 4.46003 | 4153 ft | 210 kts | 236° |
| 2026-05-07 22:01 | 52.27082 | 4.44078 | 3886 ft | 208 kts | 221° |
| 2026-05-07 22:01 | 52.25789 | 4.43173 | 3674 ft | 205 kts | 181° |
| 2026-05-07 22:02 | 52.24410 | 4.43695 | 3595 ft | 210 kts | 153° |
| 2026-05-07 22:02 | 52.23157 | 4.44882 | 3532 ft | 205 kts | 147° |
| 2026-05-07 22:02 | 52.22022 | 4.46238 | 3488 ft | 202 kts | 131° |
| 2026-05-07 22:02 | 52.21384 | 4.48215 | 3400 ft | 197 kts | 110° |
| 2026-05-07 22:03 | 52.20959 | 4.50291 | 3094 ft | 188 kts | 108° |
| 2026-05-07 22:03 | 52.20836 | 4.52357 | 2765 ft | 182 kts | 76° |
| 2026-05-07 22:03 | 52.21367 | 4.54181 | 2521 ft | 175 kts | 60° |
| 2026-05-07 22:03 | 52.22013 | 4.55826 | 2252 ft | 169 kts | 57° |
| 2026-05-07 22:04 | 52.22648 | 4.57384 | 2055 ft | 160 kts | 59° |
| 2026-05-07 22:04 | 52.23246 | 4.58915 | 1989 ft | 153 kts | 60° |
| 2026-05-07 22:04 | 52.23607 | 4.59855 | 1940 ft | 143 kts | 60° |
| 2026-05-07 22:04 | 52.24117 | 4.61187 | 1803 ft | 134 kts | 60° |
| 2026-05-07 22:05 | 52.24601 | 4.62457 | 1640 ft | 133 kts | 60° |
| 2026-05-07 22:05 | 52.25078 | 4.63703 | 1446 ft | 126 kts | 59° |
| 2026-05-07 22:05 | 52.25550 | 4.64938 | 1277 ft | 128 kts | 59° |
| 2026-05-07 22:05 | 52.26015 | 4.66152 | 1090 ft | 123 kts | 60° |
| 2026-05-07 22:06 | 52.26467 | 4.67337 | 929 ft | 122 kts | 60° |
| 2026-05-07 22:06 | 52.26920 | 4.68528 | 777 ft | 124 kts | 59° |
| 2026-05-07 22:06 | 52.27382 | 4.69723 | 648 ft | 124 kts | 58° |
| 2026-05-07 22:06 | 52.27837 | 4.70934 | 477 ft | 124 kts | 58° |
| 2026-05-07 22:07 | 52.28284 | 4.72109 | 271 ft | 120 kts | 58° |
| 2026-05-07 22:07 | 52.28730 | 4.73257 | 103 ft | 120 kts | 58° |
| 2026-05-07 22:07 | 52.29170 | 4.74398 | 5 ft | 115 kts | 58° |
| 2026-05-07 22:07 | 52.29530 | 4.75343 | -3 ft | 68 kts | 57° |
| 2026-05-07 22:08 | 52.29701 | 4.75780 | -3 ft | 47 kts | 58° |
| 2026-05-07 22:08 | 52.29823 | 4.76098 | -5 ft | 44 kts | 58° |
| 2026-05-07 22:08 | 52.29950 | 4.76421 | -4 ft | 23 kts | 52° |
| 2026-05-07 22:08 | 52.30069 | 4.76576 | -3 ft | 17 kts | 28° |
| 2026-05-07 22:09 | 52.30110 | 4.76609 | -2 ft | 6 kts | 25° |
| 2026-05-07 22:09 | 52.30145 | 4.76638 | -2 ft | 6 kts | 28° |
| 2026-05-07 22:09 | 52.30187 | 4.76675 | -2 ft | 7 kts | 28° |
| 2026-05-07 22:09 | 52.30237 | 4.76719 | -2 ft | 9 kts | 25° |
| 2026-05-07 22:10 | 52.30279 | 4.76747 | -2 ft | 10 kts | 29° |